This is the latest recevied weather packets stored in our database for station/object F4JUT-10. If no packets are shown the sender has not sent any weather packets the latest 10 day(s).
| Time | Temp. | Humidity | Pressure | Rain* | Wind** | Luminosity | Snow |
|---|---|---|---|---|---|---|---|
| 1777264372 | 7.22° C | 69% | 1022.9 hPa | - | - | - | - |
| 1777263472 | 7.22° C | 68% | 1022.8 hPa | - | - | - | - |
| 1777262572 | 7.78° C | 68% | 1022.8 hPa | - | - | - | - |
| 1777261672 | 8.33° C | 70% | 1022.8 hPa | - | - | - | - |
| 1777260772 | 8.33° C | 69% | 1022.8 hPa | - | - | - | - |
| 1777259872 | 8.89° C | 68% | 1022.9 hPa | - | - | - | - |
| 1777258972 | 8.89° C | 67% | 1022.8 hPa | - | - | - | - |
| 1777258072 | 8.89° C | 68% | 1022.8 hPa | - | - | - | - |
| 1777257172 | 8.89° C | 68% | 1022.7 hPa | - | - | - | - |
| 1777256272 | 8.89° C | 66% | 1022.7 hPa | - | - | - | - |
| 1777255371 | 8.89° C | 66% | 1022.7 hPa | - | - | - | - |
| 1777254471 | 8.89° C | 63% | 1022.6 hPa | - | - | - | - |
| 1777253571 | 10° C | 65% | 1022.7 hPa | - | - | - | - |
| 1777252671 | 10° C | 64% | 1022.7 hPa | - | - | - | - |
| 1777251770 | 9.44° C | 61% | 1022.9 hPa | - | - | - | - |
| 1777250870 | 10° C | 59% | 1022.8 hPa | - | - | - | - |
| 1777249970 | 10.56° C | 61% | 1022.8 hPa | - | - | - | - |
| 1777249069 | 11.11° C | 60% | 1022.9 hPa | - | - | - | - |
| 1777248169 | 11.11° C | 57% | 1023 hPa | - | - | - | - |
| 1777247269 | 11.67° C | 59% | 1022.9 hPa | - | - | - | - |
| 1777246369 | 12.22° C | 58% | 1022.9 hPa | - | - | - | - |
| 1777245469 | 12.22° C | 57% | 1022.8 hPa | - | - | - | - |
| 1777244568 | 12.22° C | 58% | 1022.8 hPa | - | - | - | - |
| 1777243668 | 12.78° C | 59% | 1022.9 hPa | - | - | - | - |
| 1777242768 | 12.78° C | 57% | 1022.8 hPa | - | - | - | - |
* Rain since midnight (hover to see other rain measurements)
** Current wind speed in m/s (hover to see current wind gust speed)